ADDS TAF Data INFO
IDs: Format: Raw Decoded Include METARs

Data at: 1519 UTC 18 Jan 2018

KFST 181453Z AUTO 29007KT 10SM CLR M02/M12 A3033 RMK AO2 SLP275 T10221122 53002

KFST 181120Z 1812/1912 18010KT P6SM SCT250